LHA5SH EDDH-LOWW
Flight info
| Callsign | LHA5SH |
|---|---|
| Flight time | N/A |
| Altitude | 23000 |
| Route | RAMAR6G/33 RAMAR Z998 NUSGU/N0448F350 Z998 OSKAN M748 HDO DCT EVIKU DCT BITSI DCT MIKOV |
| Aircraft | A20N/M-SDE1E2FGIJ1RWYZ/S |
Departure
| Time | 2026-05-05 18:02 |
|---|---|
| Airport | Hamburg Helmut Schmidt Airport (EDDH) |
Arrival
| Time | N/A |
|---|---|
| Airport | Vienna International Airport (LOWW) |
| Time | Latitude | Longitude | Altitude | Speed | Heading |
|---|---|---|---|---|---|
| 2026-05-05 17:34 | 53.62518 | 10.00407 | 46 ft | 0 kts | 243° |
| 2026-05-05 17:53 | 53.62519 | 10.00410 | 46 ft | 0 kts | 249° |
| 2026-05-05 17:53 | 53.62519 | 10.00428 | 46 ft | 2 kts | 278° |
| 2026-05-05 17:53 | 53.62517 | 10.00452 | 47 ft | 2 kts | 266° |
| 2026-05-05 17:54 | 53.62515 | 10.00477 | 47 ft | 2 kts | 292° |
| 2026-05-05 17:54 | 53.62508 | 10.00499 | 48 ft | 2 kts | 310° |
| 2026-05-05 17:54 | 53.62497 | 10.00516 | 48 ft | 1 kts | 328° |
| 2026-05-05 17:54 | 53.62492 | 10.00520 | 48 ft | 1 kts | 334° |
| 2026-05-05 17:55 | 53.62490 | 10.00522 | 48 ft | 0 kts | 333° |
| 2026-05-05 17:57 | 53.62495 | 10.00517 | 48 ft | 2 kts | 332° |
| 2026-05-05 17:58 | 53.62517 | 10.00497 | 47 ft | 4 kts | 330° |
| 2026-05-05 17:58 | 53.62558 | 10.00461 | 47 ft | 8 kts | 334° |
| 2026-05-05 17:58 | 53.62604 | 10.00391 | 46 ft | 10 kts | 281° |
| 2026-05-05 17:58 | 53.62590 | 10.00284 | 44 ft | 10 kts | 252° |
| 2026-05-05 17:59 | 53.62575 | 10.00221 | 43 ft | 0 kts | 242° |
| 2026-05-05 17:59 | 53.62574 | 10.00219 | 43 ft | 0 kts | 242° |
| 2026-05-05 18:00 | 53.62572 | 10.00213 | 43 ft | 1 kts | 242° |
| 2026-05-05 18:00 | 53.62566 | 10.00195 | 43 ft | 2 kts | 242° |
| 2026-05-05 18:00 | 53.62551 | 10.00141 | 44 ft | 6 kts | 246° |
| 2026-05-05 18:00 | 53.62542 | 10.00054 | 44 ft | 8 kts | 283° |
| 2026-05-05 18:01 | 53.62594 | 9.99980 | 42 ft | 13 kts | 332° |
| 2026-05-05 18:01 | 53.62808 | 9.99800 | 33 ft | 68 kts | 333° |
| 2026-05-05 18:01 | 53.63442 | 9.99247 | 34 ft | 131 kts | 332° |
| 2026-05-05 18:01 | 53.64399 | 9.98410 | 155 ft | 170 kts | 332° |
| 2026-05-05 18:02 | 53.65396 | 9.97469 | 781 ft | 168 kts | 334° |
| 2026-05-05 18:02 | 53.66425 | 9.96551 | 1443 ft | 170 kts | 336° |
| 2026-05-05 18:02 | 53.67487 | 9.95657 | 2061 ft | 176 kts | 338° |
| 2026-05-05 18:02 | 53.68651 | 9.94844 | 2517 ft | 189 kts | 349° |
| 2026-05-05 18:03 | 53.69990 | 9.94494 | 2980 ft | 205 kts | 354° |
| 2026-05-05 18:03 | 53.71471 | 9.94090 | 3357 ft | 229 kts | 353° |
| 2026-05-05 18:03 | 53.73108 | 9.93618 | 3884 ft | 247 kts | 352° |
| 2026-05-05 18:03 | 53.74844 | 9.93137 | 4605 ft | 258 kts | 352° |
| 2026-05-05 18:04 | 53.76609 | 9.92678 | 5470 ft | 262 kts | 352° |
| 2026-05-05 18:04 | 53.78420 | 9.92262 | 6322 ft | 266 kts | 356° |
| 2026-05-05 18:04 | 53.80236 | 9.92763 | 7095 ft | 274 kts | 27° |
| 2026-05-05 18:04 | 53.81614 | 9.94926 | 7875 ft | 281 kts | 59° |
| 2026-05-05 18:05 | 53.82209 | 9.98051 | 8611 ft | 289 kts | 83° |
| 2026-05-05 18:05 | 53.82390 | 10.01457 | 9308 ft | 296 kts | 85° |
| 2026-05-05 18:05 | 53.82592 | 10.04956 | 9755 ft | 300 kts | 84° |
| 2026-05-05 18:05 | 53.82831 | 10.08473 | 10185 ft | 309 kts | 83° |
| 2026-05-05 18:06 | 53.83108 | 10.12172 | 10618 ft | 326 kts | 83° |
| 2026-05-05 18:06 | 53.83309 | 10.14752 | 10853 ft | 338 kts | 82° |
| 2026-05-05 18:06 | 53.83740 | 10.20172 | 11350 ft | 360 kts | 82° |
| 2026-05-05 18:06 | 53.84077 | 10.24392 | 11948 ft | 367 kts | 82° |
| 2026-05-05 18:07 | 53.84407 | 10.28671 | 12683 ft | 370 kts | 85° |
| 2026-05-05 18:07 | 53.84449 | 10.33051 | 13352 ft | 374 kts | 92° |
| 2026-05-05 18:07 | 53.84317 | 10.37454 | 13979 ft | 378 kts | 94° |
| 2026-05-05 18:07 | 53.84156 | 10.41860 | 14628 ft | 382 kts | 94° |
| 2026-05-05 18:08 | 53.83993 | 10.46323 | 15248 ft | 386 kts | 94° |
| 2026-05-05 18:08 | 53.83831 | 10.50889 | 15856 ft | 390 kts | 94° |
| 2026-05-05 18:08 | 53.83631 | 10.55473 | 16483 ft | 393 kts | 100° |
| 2026-05-05 18:08 | 53.82740 | 10.59775 | 17023 ft | 390 kts | 124° |
| 2026-05-05 18:09 | 53.80954 | 10.63110 | 17486 ft | 384 kts | 143° |
| 2026-05-05 18:09 | 53.78818 | 10.65864 | 17852 ft | 386 kts | 147° |
| 2026-05-05 18:09 | 53.76658 | 10.68561 | 18204 ft | 389 kts | 147° |
| 2026-05-05 18:09 | 53.74536 | 10.71320 | 18579 ft | 392 kts | 146° |
| 2026-05-05 18:10 | 53.72395 | 10.74212 | 19022 ft | 397 kts | 144° |
| 2026-05-05 18:10 | 53.70231 | 10.77206 | 19350 ft | 407 kts | 144° |
| 2026-05-05 18:10 | 53.68026 | 10.80285 | 19771 ft | 413 kts | 144° |
| 2026-05-05 18:10 | 53.65838 | 10.83351 | 20306 ft | 416 kts | 144° |
| 2026-05-05 18:11 | 53.63604 | 10.86485 | 20862 ft | 418 kts | 144° |
| 2026-05-05 18:11 | 53.61356 | 10.89638 | 21361 ft | 421 kts | 144° |
| 2026-05-05 18:11 | 53.59132 | 10.92755 | 21846 ft | 425 kts | 144° |
| 2026-05-05 18:11 | 53.56838 | 10.95963 | 22356 ft | 427 kts | 144° |
| 2026-05-05 18:12 | 53.54570 | 10.99130 | 22829 ft | 430 kts | 144° |
| 2026-05-05 18:12 | 53.52277 | 11.02327 | 23279 ft | 433 kts | 144° |
| 2026-05-05 18:12 | 53.49951 | 11.05562 | 23739 ft | 435 kts | 144° |
| 2026-05-05 18:12 | 53.47629 | 11.08791 | 24183 ft | 437 kts | 144° |
| 2026-05-05 18:13 | 53.45287 | 11.12040 | 24602 ft | 440 kts | 144° |
| 2026-05-05 18:13 | 53.42916 | 11.15328 | 25016 ft | 442 kts | 144° |
| 2026-05-05 18:13 | 53.40554 | 11.18598 | 25431 ft | 444 kts | 144° |
| 2026-05-05 18:13 | 53.38187 | 11.21868 | 25835 ft | 446 kts | 145° |
| 2026-05-05 18:14 | 53.35811 | 11.25147 | 26357 ft | 445 kts | 145° |
| 2026-05-05 18:14 | 53.33442 | 11.28414 | 26930 ft | 442 kts | 145° |
| 2026-05-05 18:14 | 53.31080 | 11.31667 | 27460 ft | 440 kts | 145° |
| 2026-05-05 18:14 | 53.28721 | 11.34909 | 27943 ft | 440 kts | 146° |
| 2026-05-05 18:15 | 53.26366 | 11.38138 | 28417 ft | 439 kts | 146° |
| 2026-05-05 18:15 | 53.24003 | 11.41377 | 28908 ft | 438 kts | 146° |
| 2026-05-05 18:15 | 53.21686 | 11.44545 | 29383 ft | 436 kts | 146° |
| 2026-05-05 18:15 | 53.19337 | 11.47754 | 29867 ft | 435 kts | 146° |
| 2026-05-05 18:16 | 53.17017 | 11.50917 | 30347 ft | 433 kts | 146° |
| 2026-05-05 18:16 | 53.14678 | 11.54100 | 30811 ft | 432 kts | 146° |
| 2026-05-05 18:16 | 53.12355 | 11.57258 | 31277 ft | 430 kts | 146° |
| 2026-05-05 18:16 | 53.10062 | 11.60369 | 31735 ft | 429 kts | 146° |
| 2026-05-05 18:17 | 53.07753 | 11.63498 | 32171 ft | 427 kts | 146° |
| 2026-05-05 18:17 | 53.05461 | 11.66602 | 32596 ft | 425 kts | 147° |
| 2026-05-05 18:17 | 53.03182 | 11.69684 | 33016 ft | 423 kts | 147° |
| 2026-05-05 18:17 | 53.00892 | 11.72777 | 33360 ft | 423 kts | 147° |
| 2026-05-05 18:18 | 52.98607 | 11.75853 | 33633 ft | 424 kts | 147° |
| 2026-05-05 18:18 | 52.96352 | 11.78885 | 33879 ft | 425 kts | 147° |
| 2026-05-05 18:18 | 52.94038 | 11.81997 | 34131 ft | 426 kts | 147° |
| 2026-05-05 18:18 | 52.91732 | 11.85095 | 34367 ft | 427 kts | 148° |
| 2026-05-05 18:19 | 52.89442 | 11.88166 | 34591 ft | 427 kts | 148° |
| 2026-05-05 18:19 | 52.87138 | 11.91249 | 34813 ft | 428 kts | 148° |
| 2026-05-05 18:19 | 52.84824 | 11.94345 | 34844 ft | 429 kts | 148° |
| 2026-05-05 18:20 | 52.80203 | 12.00510 | 34839 ft | 429 kts | 148° |
| 2026-05-05 18:20 | 52.75516 | 12.06744 | 34833 ft | 429 kts | 148° |
| 2026-05-05 18:21 | 52.70898 | 12.12866 | 34826 ft | 429 kts | 147° |
| 2026-05-05 18:21 | 52.66248 | 12.19016 | 34829 ft | 429 kts | 147° |
| 2026-05-05 18:22 | 52.61572 | 12.25183 | 34821 ft | 429 kts | 147° |
| 2026-05-05 18:22 | 52.56941 | 12.31275 | 34823 ft | 429 kts | 147° |
| 2026-05-05 18:23 | 52.52271 | 12.37397 | 34817 ft | 429 kts | 147° |
| 2026-05-05 18:23 | 52.47625 | 12.43475 | 34817 ft | 429 kts | 147° |
| 2026-05-05 18:24 | 52.42966 | 12.49552 | 34819 ft | 429 kts | 147° |
| 2026-05-05 18:24 | 52.38850 | 12.54906 | 34813 ft | 429 kts | 147° |
| 2026-05-05 18:25 | 52.34192 | 12.60949 | 34812 ft | 429 kts | 147° |
| 2026-05-05 18:25 | 52.29534 | 12.66972 | 34796 ft | 429 kts | 148° |
| 2026-05-05 18:26 | 52.24853 | 12.73014 | 34798 ft | 429 kts | 148° |
| 2026-05-05 18:26 | 52.20206 | 12.78993 | 34791 ft | 429 kts | 148° |
| 2026-05-05 18:27 | 52.15503 | 12.85024 | 34791 ft | 430 kts | 147° |
| 2026-05-05 18:27 | 52.10818 | 12.91019 | 34779 ft | 429 kts | 147° |
| 2026-05-05 18:28 | 52.03806 | 12.99963 | 34785 ft | 429 kts | 147° |
| 2026-05-05 18:28 | 51.99089 | 13.05955 | 34794 ft | 429 kts | 147° |
| 2026-05-05 18:29 | 51.94418 | 13.11876 | 34801 ft | 429 kts | 147° |
| 2026-05-05 18:29 | 51.89719 | 13.17816 | 34795 ft | 429 kts | 147° |
| 2026-05-05 18:30 | 51.85012 | 13.23749 | 34790 ft | 429 kts | 147° |
| 2026-05-05 18:30 | 51.80314 | 13.29654 | 34789 ft | 429 kts | 147° |
| 2026-05-05 18:31 | 51.75627 | 13.35531 | 34792 ft | 428 kts | 147° |
| 2026-05-05 18:31 | 51.70937 | 13.41393 | 34791 ft | 428 kts | 147° |
| 2026-05-05 18:32 | 51.66252 | 13.47236 | 34784 ft | 428 kts | 147° |
| 2026-05-05 18:32 | 51.61549 | 13.53085 | 34782 ft | 428 kts | 147° |
| 2026-05-05 18:33 | 51.56856 | 13.58903 | 34773 ft | 428 kts | 147° |
| 2026-05-05 18:33 | 51.52164 | 13.64703 | 34770 ft | 427 kts | 146° |
| 2026-05-05 18:34 | 51.47451 | 13.70520 | 34765 ft | 427 kts | 147° |
| 2026-05-05 18:34 | 51.42770 | 13.76282 | 34771 ft | 427 kts | 147° |
| 2026-05-05 18:35 | 51.38053 | 13.82070 | 34766 ft | 427 kts | 147° |
| 2026-05-05 18:35 | 51.33348 | 13.87830 | 34766 ft | 427 kts | 147° |
| 2026-05-05 18:36 | 51.28651 | 13.93564 | 34766 ft | 427 kts | 147° |
| 2026-05-05 18:36 | 51.23939 | 13.99297 | 34761 ft | 426 kts | 147° |
| 2026-05-05 18:37 | 51.19224 | 14.05023 | 34759 ft | 426 kts | 146° |
| 2026-05-05 18:37 | 51.14533 | 14.10709 | 34764 ft | 426 kts | 147° |
| 2026-05-05 18:38 | 51.09829 | 14.16398 | 34765 ft | 426 kts | 146° |
| 2026-05-05 18:38 | 51.06811 | 14.20037 | 34767 ft | 426 kts | 146° |